Time;durP1;ratioP1;P1;durP2;ratioP2;P2;SDS_P1;SDS_P2;PMS_P1;PMS_P2;Temp;Humidity;BMP_temperature;BMP_pressure;BME280_temperature;BME280_humidity;BME280_pressure;Samples;Min_cycle;Max_cycle;Signal;HPM_P1;HPM_P2
2022/08/12 00:43:27;;;;;;;8.37;3.97;;;13.30;27.70;;;;;;5070146;28;46933;-69
2022/08/12 00:48:38;;;;;;;4.73;3.23;;;13.70;28.70;;;;;;5070335;28;46346;-68
2022/08/12 00:51:05;;;;;;;8.13;3.77;;;13.50;27.80;;;;;;5069152;28;46624;-68
2022/08/12 00:53:32;;;;;;;7.20;3.57;;;13.60;27.90;;;;;;5070100;28;46368;-68
2022/08/12 00:55:59;;;;;;;9.67;3.33;;;13.40;35.40;;;;;;5069964;28;46388;-68
2022/08/12 00:58:29;;;;;;;12.93;3.80;;;13.60;27.80;;;;;;5066151;28;46341;-69
2022/08/12 01:00:59;;;;;;;7.23;3.70;;;13.60;28.30;;;;;;5071589;28;46457;-67
2022/08/12 01:11:27;;;;;;;8.20;3.67;;;13.30;42.10;;;;;;5071512;27;46980;-68
2022/08/12 01:11:44;;;;;;;5.80;3.60;;;13.80;42.20;;;;;;5070091;28;46632;-67
2022/08/12 01:14:10;;;;;;;5.27;3.57;;;13.70;34.90;;;;;;5071035;27;47190;-67
2022/08/12 01:16:36;;;;;;;7.60;4.13;;;;;;;;;;5069348;28;46318;-69
2022/08/12 01:19:02;;;;;;;4.60;3.10;;;;;;;;;;5071073;27;46377;-67
2022/08/12 01:22:01;;;;;;;5.63;3.30;;;13.40;43.20;;;;;;5068115;28;46389;-68
2022/08/12 01:24:48;;;;;;;7.30;3.70;;;13.70;28.40;;;;;;5070581;28;47151;-68
2022/08/12 01:27:17;;;;;;;6.27;3.53;;;13.60;28.50;;;;;;5069273;28;46398;-69
2022/08/12 01:29:46;;;;;;;4.80;3.30;;;13.70;28.70;;;;;;5069962;28;46426;-70
2022/08/12 01:32:13;;;;;;;6.07;3.17;;;13.60;28.60;;;;;;5067729;28;46564;-69
2022/08/12 01:34:49;;;;;;;6.50;2.77;;;13.60;29.40;;;;;;5070002;28;46365;-68
2022/08/12 01:37:17;;;;;;;4.87;2.97;;;13.70;29.80;;;;;;5068879;28;46396;-67
2022/08/12 01:39:52;;;;;;;5.37;3.03;;;13.20;29.90;;;;;;5071350;28;45867;-69
2022/08/12 01:42:21;;;;;;;7.10;3.20;;;13.20;29.20;;;;;;5069033;28;46683;-68
2022/08/12 01:44:52;;;;;;;6.90;3.00;;;13.20;32.50;;;;;;5070231;28;46688;-69
2022/08/12 01:47:30;;;;;;;4.83;3.30;;;13.10;29.50;;;;;;5069217;28;46625;-69
2022/08/12 01:50:10;;;;;;;12.20;3.63;;;13.00;29.60;;;;;;5070191;28;46378;-68
2022/08/12 01:53:02;;;;;;;4.77;2.97;;;12.80;30.50;;;;;;5069957;28;46374;-68
2022/08/12 01:55:37;;;;;;;4.60;3.13;;;12.70;30.00;;;;;;5070318;28;47129;-68
2022/08/12 01:59:45;;;;;;;5.77;3.83;;;12.60;30.00;;;;;;5068404;28;46477;-67
2022/08/12 02:01:19;;;;;;;4.77;2.90;;;12.60;44.80;;;;;;5070678;28;46405;-67
2022/08/12 02:13:42;;;;;;;7.30;4.00;;;12.00;30.80;;;;;;5069254;28;46466;-69
2022/08/12 02:16:30;;;;;;;14.43;3.77;;;11.80;36.80;;;;;;5069532;28;47340;-68
2022/08/12 02:19:14;;;;;;;5.20;3.60;;;11.80;31.10;;;;;;5067132;28;47027;-68
2022/08/12 02:21:49;;;;;;;7.80;4.00;;;11.70;32.30;;;;;;5070003;28;46522;-68
2022/08/12 02:24:19;;;;;;;5.47;3.53;;;11.80;31.40;;;;;;5068843;28;46459;-70
2022/08/12 02:26:47;;;;;;;7.93;3.63;;;11.80;31.50;;;;;;5070250;28;46592;-68
2022/08/12 02:29:13;;;;;;;7.47;4.97;;;;;;;;;;5068375;28;47243;-66
2022/08/12 02:31:42;;;;;;;10.20;3.90;;;11.60;31.60;;;;;;5068751;28;46453;-69
2022/08/12 02:34:08;;;;;;;6.57;4.27;;;11.70;31.70;;;;;;5069185;28;45827;-67
2022/08/12 02:36:37;;;;;;;6.97;3.77;;;11.80;41.10;;;;;;5066883;28;46371;-68
2022/08/12 02:39:07;;;;;;;11.63;3.80;;;11.70;32.40;;;;;;5069007;28;48294;-69
2022/08/12 02:41:36;;;;;;;6.10;3.40;;;11.70;45.90;;;;;;5069855;28;46387;-67
2022/08/12 02:44:08;;;;;;;4.50;3.40;;;11.30;47.50;;;;;;5068680;28;46353;-65
2022/08/12 02:46:34;;;;;;;4.63;3.40;;;11.70;33.50;;;;;;5068999;28;46513;-67
2022/08/12 02:49:08;;;;;;;5.70;3.40;;;11.60;32.70;;;;;;5066760;28;47913;-69
2022/08/12 02:51:41;;;;;;;10.67;3.50;;;11.40;44.80;;;;;;5067494;28;46533;-68
2022/08/12 02:54:07;;;;;;;6.03;3.67;;;;;;;;;;5069848;28;46452;-68
2022/08/12 02:56:39;;;;;;;9.57;3.93;;;11.10;33.00;;;;;;5070381;27;46418;-72
2022/08/12 02:59:13;;;;;;;6.93;4.20;;;11.20;32.80;;;;;;5069049;27;46432;-67
2022/08/12 03:01:47;;;;;;;7.30;3.80;;;11.30;33.20;;;;;;5069102;28;46828;-68
2022/08/12 03:04:21;;;;;;;6.43;3.83;;;11.20;33.20;;;;;;5070144;28;46606;-68
2022/08/12 03:07:03;;;;;;;5.43;3.67;;;11.20;33.40;;;;;;5066183;28;46449;-66
2022/08/12 03:09:34;;;;;;;6.80;3.80;;;11.10;33.50;;;;;;5069024;27;48448;-68
2022/08/12 03:12:04;;;;;;;8.20;3.80;;;11.00;33.60;;;;;;5067445;28;46441;-70
2022/08/12 03:14:34;;;;;;;9.30;4.60;;;11.00;33.90;;;;;;5070346;28;46504;-67
2022/08/12 03:17:13;;;;;;;7.97;4.20;;;10.90;34.00;;;;;;5068090;28;46420;-68
2022/08/12 03:19:42;;;;;;;11.03;4.00;;;;;;;;;;5069764;28;46615;-70
2022/08/12 03:22:13;;;;;;;6.30;4.00;;;11.10;50.30;;;;;;5067689;28;46388;-67
2022/08/12 03:24:41;;;;;;;7.20;4.37;;;11.00;34.00;;;;;;5068897;28;46424;-69
2022/08/12 03:27:10;;;;;;;5.07;3.87;;;11.00;33.90;;;;;;5068403;28;46396;-69
2022/08/12 03:29:37;;;;;;;7.70;4.67;;;9.80;33.80;;;;;;5068281;28;47294;-70
2022/08/12 03:32:04;;;;;;;6.80;3.90;;;11.00;40.50;;;;;;5068650;27;46443;-67
2022/08/12 03:34:34;;;;;;;5.63;3.80;;;11.10;34.00;;;;;;5069692;28;46716;-70
2022/08/12 03:37:01;;;;;;;7.53;4.60;;;11.10;34.40;;;;;;5067402;28;46397;-67
2022/08/12 03:39:40;;;;;;;7.03;4.00;;;10.90;34.10;;;;;;5068123;28;47460;-66
2022/08/12 03:42:29;;;;;;;17.13;4.30;;;11.00;34.40;;;;;;5066696;28;46310;-70
2022/08/12 04:01:56;;;;;;;11.23;4.20;;;10.90;34.80;;;;;;5068907;28;46670;-67
2022/08/12 04:04:28;;;;;;;8.50;4.50;;;10.70;48.30;;;;;;5072449;27;46502;-67
2022/08/12 04:06:56;;;;;;;11.13;4.10;;;10.90;39.60;;;;;;5073768;28;46480;-67
2022/08/12 04:09:22;;;;;;;5.83;3.77;;;;;;;;;;5073191;28;46508;-67
2022/08/12 04:14:34;;;;;;;5.77;3.47;;;10.70;35.40;;;;;;5075778;28;46439;-70
2022/08/12 04:17:01;;;;;;;6.27;4.23;;;10.70;35.50;;;;;;5074743;28;45823;-68
2022/08/12 04:19:27;;;;;;;5.80;4.03;;;;;;;;;;5075261;28;46634;-70
2022/08/12 04:21:54;;;;;;;5.63;4.50;;;10.70;43.80;;;;;;5073208;28;46431;-67
2022/08/12 04:24:20;;;;;;;9.67;4.20;;;;;;;;;;5075473;28;46405;-68
2022/08/12 04:26:46;;;;;;;6.90;4.40;;;;;;;;;;5073311;28;46483;-65
2022/08/12 04:29:13;;;;;;;6.47;4.23;;;;;;;;;;5076040;28;46520;-69
2022/08/12 04:31:41;;;;;;;7.90;4.13;;;10.90;35.70;;;;;;5074054;28;46413;-67
2022/08/12 04:34:11;;;;;;;6.03;3.60;;;10.90;35.60;;;;;;5075915;28;46477;-68
2022/08/12 04:36:38;;;;;;;6.47;3.70;;;11.00;36.50;;;;;;5073722;28;46332;-69
2022/08/12 04:39:06;;;;;;;14.37;4.80;;;10.90;35.40;;;;;;5074705;28;46562;-67
2022/08/12 04:41:33;;;;;;;7.20;4.10;;;11.10;36.00;;;;;;5074846;28;46675;-67
2022/08/12 04:43:59;;;;;;;7.70;3.87;;;11.00;37.30;;;;;;5073307;28;46364;-69
2022/08/12 04:46:25;;;;;;;7.30;4.37;;;;;;;;;;5075358;28;46506;-71
2022/08/12 04:48:52;;;;;;;7.17;4.50;;;11.80;36.80;;;;;;5074396;27;46452;-67
2022/08/12 04:51:19;;;;;;;9.73;4.17;;;11.40;35.50;;;;;;5071804;28;47187;-68
2022/08/12 04:53:46;;;;;;;12.60;5.13;;;11.30;35.30;;;;;;5072190;28;46515;-67
2022/08/12 04:56:12;;;;;;;5.50;3.77;;;;;;;;;;5067202;28;46499;-66
2022/08/12 04:58:38;;;;;;;7.40;4.27;;;11.70;35.30;;;;;;5071809;28;45891;-68
2022/08/12 05:01:06;;;;;;;6.87;4.30;;;11.90;36.80;;;;;;5069810;28;46459;-68
2022/08/12 05:03:34;;;;;;;9.93;4.30;;;12.30;41.40;;;;;;5062589;28;46179;-67
2022/08/12 05:06:00;;;;;;;5.97;3.67;;;;;;;;;;5064310;28;46352;-67
2022/08/12 05:08:26;;;;;;;4.00;2.80;;;;;;;;;;5064489;28;46395;-67
2022/08/12 05:10:52;;;;;;;6.10;4.00;;;15.10;32.60;;;;;;5063485;28;46415;-66
2022/08/12 05:13:20;;;;;;;6.57;3.77;;;16.70;44.30;;;;;;5063795;28;46264;-68
2022/08/12 05:15:47;;;;;;;5.10;3.00;;;17.50;34.10;;;;;;5062360;28;47481;-68
2022/08/12 05:18:13;;;;;;;4.47;2.97;;;18.50;28.70;;;;;;5060441;28;46560;-68
2022/08/12 05:20:41;;;;;;;13.00;3.10;;;;;;;;;;5060472;28;46371;-68
2022/08/12 05:23:11;;;;;;;5.03;2.80;;;20.00;26.10;;;;;;5061198;28;46424;-68
2022/08/12 05:25:37;;;;;;;8.60;2.73;;;;;;;;;;5060051;28;46422;-70
2022/08/12 05:28:07;;;;;;;5.07;3.37;;;21.40;23.80;;;;;;5059059;28;46945;-68
2022/08/12 05:30:33;;;;;;;6.00;2.73;;;22.20;23.20;;;;;;5059992;28;46849;-68
2022/08/12 05:33:04;;;;;;;6.70;3.20;;;22.60;22.10;;;;;;5059169;28;46482;-69
2022/08/12 05:35:38;;;;;;;5.17;3.47;;;22.90;23.40;;;;;;5058539;28;46463;-68
2022/08/12 05:40:49;;;;;;;10.13;3.10;;;24.00;19.30;;;;;;5059804;28;46641;-68
2022/08/12 05:43:16;;;;;;;7.40;3.50;;;24.50;18.00;;;;;;5060987;28;46460;-68
2022/08/12 05:45:42;;;;;;;7.60;3.60;;;;;;;;;;5060092;28;46514;-68
2022/08/12 05:48:07;;;;;;;13.57;3.60;;;24.60;24.30;;;;;;5061156;28;46563;-68
2022/08/12 05:50:36;;;;;;;15.57;3.73;;;24.60;15.90;;;;;;5060565;28;46322;-68
2022/08/12 05:53:02;;;;;;;8.13;3.30;;;25.10;14.70;;;;;;5061784;28;46397;-68
2022/08/12 05:55:29;;;;;;;4.00;2.80;;;;;;;;;;5060831;28;46519;-68
2022/08/12 05:57:55;;;;;;;4.83;3.00;;;25.10;18.20;;;;;;5062404;28;46506;-68
2022/08/12 06:00:24;;;;;;;6.47;3.00;;;25.30;12.50;;;;;;5062051;28;46399;-68
2022/08/12 06:02:59;;;;;;;8.20;2.97;;;25.20;12.50;;;;;;5061099;28;46161;-68
2022/08/12 06:05:25;;;;;;;4.53;2.80;;;;;;;;;;5061683;28;46126;-68
2022/08/12 06:07:54;;;;;;;5.67;2.70;;;25.00;12.40;;;;;;5061859;28;46405;-70
2022/08/12 06:10:19;;;;;;;8.83;2.90;;;25.20;16.70;;;;;;5059179;28;46519;-68
2022/08/12 06:12:48;;;;;;;6.33;3.37;;;25.40;17.00;;;;;;5061589;28;46374;-68
2022/08/12 06:15:14;;;;;;;7.10;2.90;;;;;;;;;;5058225;28;46325;-68
2022/08/12 06:17:39;;;;;;;7.30;2.90;;;25.30;12.30;;;;;;5060873;28;46415;-68
2022/08/12 06:20:05;;;;;;;4.30;2.90;;;25.80;9.30;;;;;;5060904;28;46415;-70
2022/08/12 06:22:31;;;;;;;5.57;2.63;;;25.50;13.00;;;;;;5060863;28;46728;-68
2022/08/12 06:24:59;;;;;;;6.17;3.10;;;25.50;15.40;;;;;;5062715;28;46467;-68
2022/08/12 06:27:25;;;;;;;10.70;3.23;;;;;;;;;;5060124;28;46044;-68
2022/08/12 06:29:51;;;;;;;4.53;2.97;;;26.20;14.10;;;;;;5061219;28;47052;-68
2022/08/12 06:32:17;;;;;;;5.57;2.80;;;25.30;9.30;;;;;;5058786;28;46510;-68
2022/08/12 06:34:43;;;;;;;9.27;3.10;;;;;;;;;;5061167;28;46592;-68
2022/08/12 06:37:09;;;;;;;4.70;2.90;;;22.90;14.80;;;;;;5059972;28;46633;-70
2022/08/12 06:39:35;;;;;;;8.73;2.93;;;;;;;;;;5061081;28;47996;-69
2022/08/12 06:44:45;;;;;;;10.23;2.90;;;23.50;13.60;;;;;;5058683;28;46409;-68
2022/08/12 06:47:10;;;;;;;6.37;3.10;;;24.50;8.40;;;;;;5061444;28;46894;-67
2022/08/12 06:49:36;;;;;;;6.53;3.47;;;24.70;13.50;;;;;;5059444;28;46988;-68
2022/08/12 06:52:03;;;;;;;8.17;3.17;;;25.00;7.10;;;;;;5062151;28;46387;-68
2022/08/12 06:54:29;;;;;;;6.00;2.53;;;24.30;14.40;;;;;;5060417;28;46508;-68
2022/08/12 06:56:56;;;;;;;7.20;2.70;;;;;;;;;;5060841;28;46415;-68
2022/08/12 06:59:22;;;;;;;5.90;2.80;;;;;;;;;;5061548;28;48165;-68
2022/08/12 07:01:48;;;;;;;5.10;2.70;;;24.80;7.10;;;;;;5061955;28;46048;-68
2022/08/12 07:04:14;;;;;;;8.63;3.13;;;;;;;;;;5061785;28;46726;-68
2022/08/12 07:06:40;;;;;;;10.97;3.43;;;;;;;;;;5059891;28;45902;-68
2022/08/12 07:09:06;;;;;;;4.17;2.40;;;;;;;;;;5060074;28;47051;-70
2022/08/12 07:11:32;;;;;;;6.73;3.10;;;21.20;21.40;;;;;;5060772;28;46376;-69
2022/08/12 07:14:00;;;;;;;7.20;3.30;;;21.20;17.00;;;;;;5061266;28;46377;-67
2022/08/12 07:16:50;;;;;;;12.60;3.10;;;21.20;18.90;;;;;;5057720;28;46340;-67
2022/08/12 07:19:12;;;;;;;4.97;2.47;;;21.50;23.30;;;;;;5059208;28;46893;-68
2022/08/12 07:21:38;;;;;;;7.77;3.10;;;21.60;22.70;;;;;;5061037;28;46406;-68
2022/08/12 07:24:04;;;;;;;6.63;2.30;;;;;;;;;;5060770;28;46406;-69
2022/08/12 07:26:30;;;;;;;10.10;2.53;;;;;;;;;;5060891;28;46728;-69
2022/08/12 07:28:56;;;;;;;5.10;2.80;;;;;;;;;;5060217;28;46539;-68
2022/08/12 07:31:22;;;;;;;8.93;2.67;;;;;;;;;;5061009;28;46585;-68
2022/08/12 07:33:48;;;;;;;11.63;2.97;;;;;;;;;;5060578;28;46438;-68
2022/08/12 07:36:15;;;;;;;9.67;2.83;;;21.70;13.90;;;;;;5059237;28;46634;-68
2022/08/12 07:38:42;;;;;;;8.17;3.00;;;;;;;;;;5059037;28;46263;-68
2022/08/12 07:41:14;;;;;;;10.50;3.13;;;22.20;23.30;;;;;;5062005;28;46501;-68
2022/08/12 07:43:43;;;;;;;11.07;2.93;;;22.00;22.50;;;;;;5065482;28;46271;-68
2022/08/12 07:46:12;;;;;;;9.63;2.40;;;21.80;14.10;;;;;;5057089;28;46406;-69
2022/08/12 07:48:44;;;;;;;6.90;2.27;;;21.90;13.90;;;;;;5058233;28;48232;-68
2022/08/12 07:51:10;;;;;;;10.87;2.47;;;21.90;13.60;;;;;;5059639;28;46826;-68
2022/08/12 07:53:37;;;;;;;10.30;2.60;;;21.90;13.50;;;;;;5061266;28;46381;-67
2022/08/12 07:56:04;;;;;;;5.07;2.60;;;21.70;20.20;;;;;;5060883;28;45905;-68
2022/08/12 07:58:31;;;;;;;10.80;2.33;;;;;;;;;;5061239;28;46998;-68
2022/08/12 08:00:59;;;;;;;6.60;2.50;;;;;;;;;;5054786;28;46524;-67
2022/08/12 08:03:25;;;;;;;7.13;3.47;;;22.50;16.60;;;;;;5057738;28;46423;-67
2022/08/12 08:05:52;;;;;;;4.50;3.10;;;;;;;;;;5057937;28;46607;-65
2022/08/12 08:08:20;;;;;;;4.53;2.53;;;22.30;12.30;;;;;;5058695;28;46772;-67
2022/08/12 08:10:47;;;;;;;7.17;2.67;;;22.30;12.60;;;;;;5058859;28;46353;-67
2022/08/12 08:13:14;;;;;;;9.47;3.43;;;;;;;;;;5059404;28;46436;-68
2022/08/12 08:15:40;;;;;;;5.87;2.77;;;22.40;13.90;;;;;;5057013;28;46543;-68
2022/08/12 08:18:10;;;;;;;8.37;2.97;;;22.40;16.40;;;;;;5056798;28;45945;-67
2022/08/12 08:20:42;;;;;;;8.43;2.80;;;22.80;12.40;;;;;;5057143;28;46426;-67
2022/08/12 08:23:15;;;;;;;7.20;2.70;;;22.90;12.80;;;;;;5057939;28;46506;-68
2022/08/12 08:25:42;;;;;;;11.43;2.50;;;23.10;17.30;;;;;;5057221;28;46413;-68
2022/08/12 08:28:17;;;;;;;5.10;2.53;;;22.90;12.50;;;;;;5052844;28;46195;-69
2022/08/12 08:30:46;;;;;;;6.03;2.40;;;23.00;21.50;;;;;;5055341;28;46457;-67
2022/08/12 08:33:14;;;;;;;14.40;2.60;;;22.90;12.20;;;;;;5058105;28;46570;-67
2022/08/12 08:35:41;;;;;;;5.90;2.50;;;23.20;19.20;;;;;;5057467;28;46462;-68
2022/08/12 08:38:16;;;;;;;6.70;2.47;;;23.00;11.80;;;;;;5056734;28;46978;-69
2022/08/12 08:43:30;;;;;;;3.70;2.20;;;23.30;11.60;;;;;;5056952;28;45826;-67
2022/08/12 08:45:56;;;;;;;13.00;2.67;;;23.20;11.60;;;;;;5059228;28;46821;-67
2022/08/12 08:48:23;;;;;;;9.90;2.40;;;23.30;11.70;;;;;;5057723;28;47350;-66
2022/08/12 08:50:49;;;;;;;4.30;2.57;;;;;;;;;;5059627;28;46380;-66
2022/08/12 08:53:16;;;;;;;6.87;2.70;;;23.40;10.90;;;;;;5060827;28;46449;-68
2022/08/12 08:55:42;;;;;;;7.57;2.20;;;;;;;;;;5061938;28;46576;-69
2022/08/12 08:58:08;;;;;;;14.67;2.30;;;23.80;10.70;;;;;;5061358;28;46397;-68
2022/08/12 09:00:38;;;;;;;4.73;2.23;;;24.10;10.70;;;;;;5060236;28;46489;-68
2022/08/12 09:03:04;;;;;;;13.47;2.43;;;;;;;;;;5063367;28;46548;-68
2022/08/12 09:05:30;;;;;;;4.63;2.40;;;;;;;;;;5065803;28;46258;-68
2022/08/12 09:07:59;;;;;;;5.20;2.53;;;23.80;10.10;;;;;;5058830;28;47141;-69
2022/08/12 09:10:25;;;;;;;6.80;1.97;;;23.90;18.10;;;;;;5059348;28;46398;-67
2022/08/12 09:15:37;;;;;;;6.90;2.30;;;23.70;18.60;;;;;;5060991;28;45850;-68
2022/08/12 09:18:06;;;;;;;6.17;2.60;;;23.70;8.70;;;;;;5060566;28;48085;-68
2022/08/12 09:20:33;;;;;;;8.10;2.47;;;23.80;8.80;;;;;;5059200;28;46425;-67
2022/08/12 09:23:01;;;;;;;4.10;2.20;;;24.20;18.50;;;;;;5061543;28;46358;-67
2022/08/12 09:25:30;;;;;;;7.03;2.07;;;23.60;8.10;;;;;;5059374;28;46384;-68
2022/08/12 09:27:59;;;;;;;3.90;2.00;;;23.50;9.90;;;;;;5060673;28;46365;-67
2022/08/12 09:30:26;;;;;;;13.63;2.50;;;23.20;11.50;;;;;;5059675;28;46330;-68
2022/08/12 09:32:53;;;;;;;5.80;2.57;;;23.40;8.60;;;;;;5058139;28;46444;-70
2022/08/12 09:35:22;;;;;;;3.87;2.33;;;23.50;8.50;;;;;;5064062;28;46396;-70
2022/08/12 09:37:49;;;;;;;6.03;2.10;;;23.50;8.50;;;;;;5068010;28;45991;-67
2022/08/12 09:40:17;;;;;;;4.00;2.50;;;23.50;8.80;;;;;;5070666;28;46369;-67
2022/08/12 09:45:30;;;;;;;6.00;2.53;;;23.80;14.70;;;;;;5069752;28;46760;-69
2022/08/12 09:47:58;;;;;;;4.07;2.00;;;23.80;16.90;;;;;;5067575;28;46646;-69
2022/08/12 09:50:24;;;;;;;6.23;2.00;;;;;;;;;;5067839;28;46355;-70
2022/08/12 09:53:06;;;;;;;9.40;2.30;;;24.20;8.20;;;;;;5068631;28;47035;-70
2022/08/12 09:55:33;;;;;;;9.70;2.17;;;;;;;;;;5066891;28;46545;-69
2022/08/12 09:57:59;;;;;;;5.27;2.20;;;;;;;;;;5066031;27;46500;-67
2022/08/12 10:00:26;;;;;;;5.07;2.53;;;;;;;;;;5066669;27;46363;-69
2022/08/12 10:03:09;;;;;;;7.57;2.43;;;24.20;7.70;;;;;;5066604;28;46944;-72
2022/08/12 10:05:42;;;;;;;11.57;2.30;;;24.00;7.50;;;;;;5067178;28;46452;-69
2022/08/12 10:08:09;;;;;;;7.07;2.23;;;;;;;;;;5066848;28;46480;-72
2022/08/12 10:13:40;;;;;;;5.20;2.47;;;24.40;9.20;;;;;;5068883;28;46347;-71
2022/08/12 10:13:43;;;;;;;10.00;2.20;;;;;;;;;;5068788;28;47009;-67
2022/08/12 10:16:12;;;;;;;5.77;1.97;;;;;;;;;;5068517;28;46434;-71
2022/08/12 10:18:43;;;;;;;19.20;2.93;;;24.20;7.00;;;;;;5066334;28;47950;-69
2022/08/12 10:21:11;;;;;;;10.33;2.03;;;24.70;8.00;;;;;;5068311;28;46444;-71
2022/08/12 10:23:37;;;;;;;5.00;2.23;;;24.50;16.50;;;;;;5068004;28;46480;-70
2022/08/12 10:31:33;;;;;;;4.73;2.40;;;24.70;12.30;;;;;;5064694;28;46753;-68
2022/08/12 10:33:59;;;;;;;8.57;2.87;;;;;;;;;;5067710;28;46195;-69
2022/08/12 10:36:24;;;;;;;14.47;2.03;;;25.60;13.40;;;;;;5069651;27;46535;-68
2022/08/12 10:38:51;;;;;;;44.27;2.77;;;25.40;5.90;;;;;;5067698;28;47033;-69
2022/08/12 10:44:02;;;;;;;5.17;2.80;;;;;;;;;;5069370;28;46385;-73
2022/08/12 10:46:28;;;;;;;7.45;2.38;;;;;;;;;;5068459;28;46373;-68
2022/08/12 10:48:54;;;;;;;4.63;2.03;;;;;;;;;;5068288;28;46315;-69
2022/08/12 10:51:19;;;;;;;9.27;2.13;;;25.50;7.90;;;;;;5068458;28;46539;-69
2022/08/12 10:53:45;;;;;;;6.93;2.10;;;25.40;6.00;;;;;;5068763;28;46455;-69
2022/08/12 10:56:12;;;;;;;6.30;1.70;;;26.10;4.20;;;;;;5067333;28;46349;-74
2022/08/12 10:58:38;;;;;;;6.90;2.10;;;;;;;;;;5067289;27;46974;-69
2022/08/12 11:01:05;;;;;;;5.57;1.97;;;26.10;4.60;;;;;;5067707;28;46372;-70
2022/08/12 11:03:38;;;;;;;3.03;1.40;;;26.00;3.10;;;;;;5066157;27;46342;-71
2022/08/12 11:06:09;;;;;;;5.53;1.77;;;26.00;3.10;;;;;;5069745;28;46788;-70
2022/08/12 11:08:37;;;;;;;3.03;1.77;;;25.50;3.70;;;;;;5065745;28;48206;-70
2022/08/12 11:11:08;;;;;;;18.47;2.87;;;25.10;3.90;;;;;;5066927;28;46421;-72
2022/08/12 11:13:35;;;;;;;3.53;2.00;;;25.00;4.50;;;;;;5067008;28;45874;-69
2022/08/12 11:16:01;;;;;;;4.47;2.33;;;;;;;;;;5066987;28;46676;-70
2022/08/12 11:18:27;;;;;;;13.30;2.17;;;;;;;;;;5066593;28;47120;-68
2022/08/12 11:20:53;;;;;;;8.30;2.47;;;;;;;;;;5067979;27;45864;-69
2022/08/12 11:23:20;;;;;;;4.37;1.93;;;24.40;6.00;;;;;;5068773;28;46572;-70
2022/08/12 11:25:46;;;;;;;6.93;1.90;;;24.30;6.50;;;;;;5067619;28;46424;-68
2022/08/12 11:28:13;;;;;;;15.37;3.17;;;24.50;5.90;;;;;;5067039;28;47023;-71
2022/08/12 11:30:39;;;;;;;9.63;2.13;;;24.60;11.60;;;;;;5066697;28;46370;-69
2022/08/12 11:33:04;;;;;;;6.80;2.30;;;24.60;11.90;;;;;;5066080;28;46842;-69
2022/08/12 11:35:30;;;;;;;8.23;2.03;;;;;;;;;;5067100;28;45894;-70
2022/08/12 11:37:59;;;;;;;3.33;1.77;;;24.60;6.30;;;;;;5065651;28;47074;-70
2022/08/12 11:40:25;;;;;;;6.50;2.00;;;24.40;12.80;;;;;;5065886;28;46779;-68
2022/08/12 11:42:51;;;;;;;4.43;1.97;;;;;;;;;;5067856;28;46377;-72
2022/08/12 11:45:18;;;;;;;3.93;1.50;;;;;;;;;;5066311;28;46693;-74
2022/08/12 11:47:44;;;;;;;5.63;2.27;;;;;;;;;;5068047;28;47086;-70
2022/08/12 11:50:10;;;;;;;6.30;2.10;;;25.00;5.30;;;;;;5066674;28;46500;-69
2022/08/12 11:52:36;;;;;;;6.73;1.53;;;;;;;;;;5067158;28;46387;-70
2022/08/12 11:55:02;;;;;;;5.43;1.97;;;;;;;;;;5068244;28;46997;-69
2022/08/12 11:57:29;;;;;;;11.37;2.00;;;24.30;8.00;;;;;;5066679;27;47535;-70
2022/08/12 11:59:55;;;;;;;3.37;1.77;;;24.40;7.50;;;;;;5068814;28;46530;-70
2022/08/12 12:02:20;;;;;;;5.60;1.80;;;24.60;9.50;;;;;;5067636;27;45806;-68
2022/08/12 12:04:46;;;;;;;4.33;2.00;;;;;;;;;;5067661;28;46645;-69
2022/08/12 12:07:12;;;;;;;4.53;1.63;;;;;;;;;;5065013;28;48407;-73
2022/08/12 12:09:38;;;;;;;5.63;1.80;;;;;;;;;;5066844;27;45769;-71
2022/08/12 12:12:05;;;;;;;8.63;1.97;;;;;;;;;;5064530;28;46443;-69
2022/08/12 12:14:31;;;;;;;5.00;2.00;;;;;;;;;;5067411;28;46686;-70
2022/08/12 12:16:57;;;;;;;3.40;1.80;;;24.90;6.60;;;;;;5063834;28;48190;-70
2022/08/12 12:19:23;;;;;;;7.40;1.90;;;;;;;;;;5066433;28;46906;-70
2022/08/12 12:21:48;;;;;;;4.03;1.93;;;25.40;14.60;;;;;;5066424;28;46505;-67
2022/08/12 12:24:15;;;;;;;3.20;1.80;;;;;;;;;;5067516;28;46561;-67
2022/08/12 12:26:40;;;;;;;10.00;1.80;;;25.40;11.00;;;;;;5069322;28;46376;-67
2022/08/12 12:29:06;;;;;;;3.43;1.93;;;25.30;12.30;;;;;;5071684;27;45962;-69
2022/08/12 12:31:32;;;;;;;3.93;1.67;;;;;;;;;;5068924;28;46747;-69
2022/08/12 12:33:57;;;;;;;5.40;1.80;;;25.60;11.00;;;;;;5069790;28;46740;-67
2022/08/12 12:36:23;;;;;;;2.40;1.40;;;25.00;3.10;;;;;;5068884;28;48308;-68
2022/08/12 12:38:49;;;;;;;2.90;1.50;;;;;;;;;;5070249;28;46429;-65
2022/08/12 12:41:15;;;;;;;6.03;1.67;;;;;;;;;;5069844;27;46409;-65
2022/08/12 12:43:41;;;;;;;3.70;1.60;;;24.80;12.00;;;;;;5072657;28;46461;-66
2022/08/12 12:46:07;;;;;;;2.80;1.17;;;24.80;3.70;;;;;;5068146;28;46472;-64
2022/08/12 12:48:32;;;;;;;8.50;1.67;;;24.80;12.10;;;;;;5068098;28;46244;-65
2022/08/12 12:51:16;;;;;;;4.70;1.70;;;25.00;8.60;;;;;;5067018;28;46654;-64
2022/08/12 12:53:44;;;;;;;9.77;1.60;;;25.20;2.70;;;;;;5067836;27;46814;-65
2022/08/12 12:56:24;;;;;;;3.17;1.70;;;24.90;5.20;;;;;;5068067;28;46549;-64
2022/08/12 12:58:51;;;;;;;3.43;1.50;;;24.90;3.60;;;;;;5068573;28;46488;-65
2022/08/12 13:01:25;;;;;;;3.10;1.70;;;25.40;5.00;;;;;;5069936;28;46707;-66
2022/08/12 13:03:55;;;;;;;3.67;1.50;;;25.50;2.80;;;;;;5070899;28;45873;-64
2022/08/12 13:06:24;;;;;;;4.07;1.50;;;25.70;7.70;;;;;;5070396;28;46647;-66
2022/08/12 13:08:54;;;;;;;5.03;1.70;;;25.30;2.50;;;;;;5068877;28;46662;-67
2022/08/12 13:11:20;;;;;;;5.67;1.40;;;;;;;;;;5067519;28;45816;-64
2022/08/12 13:13:51;;;;;;;4.83;1.60;;;;;;;;;;5071438;28;46447;-65
2022/08/12 13:16:20;;;;;;;6.30;1.50;;;25.80;1.90;;;;;;5069112;28;46633;-64
2022/08/12 13:18:51;;;;;;;8.87;2.00;;;25.80;1.70;;;;;;5069974;28;46421;-66
2022/08/12 13:21:18;;;;;;;3.77;1.60;;;25.80;4.20;;;;;;5070622;28;46686;-66
2022/08/12 13:23:48;;;;;;;7.13;1.83;;;25.70;2.00;;;;;;5068425;28;46424;-65
2022/08/12 13:26:16;;;;;;;2.63;1.57;;;27.60;3.10;;;;;;5069697;28;46370;-65
2022/08/12 13:28:46;;;;;;;12.57;1.67;;;26.00;2.00;;;;;;5070652;27;46469;-65
2022/08/12 13:31:14;;;;;;;4.93;1.50;;;25.90;5.30;;;;;;5069334;28;45971;-66
2022/08/12 13:33:41;;;;;;;4.77;1.70;;;26.00;2.30;;;;;;5066959;28;46040;-67
2022/08/12 13:36:07;;;;;;;6.77;1.57;;;;;;;;;;5066853;27;47100;-65
2022/08/12 13:38:34;;;;;;;3.57;2.07;;;26.10;11.40;;;;;;5068235;28;46764;-64
2022/08/12 13:41:00;;;;;;;3.00;1.70;;;25.80;8.50;;;;;;5068385;28;46171;-64
2022/08/12 13:43:26;;;;;;;7.80;2.10;;;;;;;;;;5069573;28;46631;-66
2022/08/12 13:45:52;;;;;;;4.57;1.83;;;;;;;;;;5070241;28;46342;-66
2022/08/12 13:48:17;;;;;;;3.83;2.33;;;25.30;8.70;;;;;;5066337;27;46425;-66
2022/08/12 13:50:43;;;;;;;4.43;1.97;;;;;;;;;;5068389;28;46566;-68
2022/08/12 13:53:14;;;;;;;11.03;2.10;;;25.70;2.90;;;;;;5069563;28;46957;-67
2022/08/12 13:55:44;;;;;;;7.43;1.83;;;25.70;2.90;;;;;;5067659;28;46422;-66
2022/08/12 13:58:11;;;;;;;2.80;1.60;;;;;;;;;;5067419;28;46394;-65
2022/08/12 14:00:37;;;;;;;3.47;1.60;;;25.50;2.80;;;;;;5068036;28;46532;-66
2022/08/12 14:03:04;;;;;;;3.67;1.83;;;;;;;;;;5068491;28;46672;-66
2022/08/12 14:05:31;;;;;;;2.80;1.50;;;;;;;;;;5067564;28;47273;-65
2022/08/12 14:07:59;;;;;;;3.80;1.97;;;25.70;1.80;;;;;;5069150;28;46941;-65
2022/08/12 14:10:37;;;;;;;6.03;2.10;;;25.90;2.10;;;;;;5068858;27;46704;-65
2022/08/12 14:13:05;;;;;;;4.60;2.10;;;25.50;10.50;;;;;;5068504;28;46541;-67
2022/08/12 14:15:33;;;;;;;3.90;2.03;;;26.00;1.60;;;;;;5069278;28;46382;-66
2022/08/12 14:18:11;;;;;;;4.53;1.50;;;26.20;1.30;;;;;;5068687;28;46296;-66
2022/08/12 14:20:38;;;;;;;7.03;1.67;;;26.40;1.00;;;;;;5068954;28;45921;-65
2022/08/12 14:23:04;;;;;;;6.40;2.10;;;26.00;7.80;;;;;;5068200;28;47321;-64
2022/08/12 14:25:30;;;;;;;6.13;1.80;;;;;;;;;;5068620;28;48236;-66
2022/08/12 14:28:23;;;;;;;3.50;1.40;;;26.00;1.50;;;;;;5067666;28;46430;-65
2022/08/12 14:30:57;;;;;;;4.53;1.57;;;25.80;1.50;;;;;;5065802;28;46327;-65
2022/08/12 14:33:24;;;;;;;2.60;1.37;;;24.90;1.60;;;;;;5068396;28;46439;-65
2022/08/12 14:35:51;;;;;;;7.63;1.40;;;25.40;6.70;;;;;;5068873;28;46484;-65
2022/08/12 14:38:20;;;;;;;5.80;1.40;;;25.10;9.30;;;;;;5069381;28;46353;-66
2022/08/12 14:40:47;;;;;;;8.90;1.50;;;24.70;2.40;;;;;;5067596;28;46361;-65
2022/08/12 14:43:13;;;;;;;6.20;1.67;;;25.00;7.70;;;;;;5070172;28;46511;-65
2022/08/12 14:45:41;;;;;;;2.97;1.20;;;25.00;10.50;;;;;;5069703;28;47043;-65
2022/08/12 14:48:07;;;;;;;2.47;1.27;;;;;;;;;;5067395;27;46393;-65
2022/08/12 14:50:33;;;;;;;4.40;1.27;;;;;;;;;;5068530;28;46155;-66
2022/08/12 14:52:59;;;;;;;8.80;1.50;;;;;;;;;;5069497;28;46433;-67
2022/08/12 14:55:30;;;;;;;2.87;1.20;;;;;;;;;;5068286;28;46387;-67
2022/08/12 14:57:56;;;;;;;4.10;1.20;;;25.70;9.90;;;;;;5065031;28;46463;-66
2022/08/12 15:03:13;;;;;;;2.00;0.93;;;25.30;1.00;;;;;;5067436;28;46785;-65
2022/08/12 15:05:40;;;;;;;2.93;1.40;;;25.70;1.00;;;;;;5069960;28;48055;-65
2022/08/12 15:08:12;;;;;;;4.70;1.30;;;26.10;3.50;;;;;;5068051;28;46350;-67